createdAt,value
2023-10-20T00:01:49.677Z,97999.63
2023-10-20T00:04:16.456Z,97998.06
2023-10-20T00:06:42.954Z,97990.66
2023-10-20T00:09:10.620Z,97976.47
2023-10-20T00:11:37.118Z,97988.13
2023-10-20T00:14:03.622Z,97964.44
2023-10-20T00:16:30.455Z,97992.34
2023-10-20T00:18:57.425Z,97972.69
2023-10-20T00:21:26.763Z,97943.59
2023-10-20T00:23:56.088Z,97960.91
2023-10-20T00:26:22.537Z,97963.78
2023-10-20T00:28:48.961Z,97933.34
2023-10-20T00:31:15.321Z,97970.91
2023-10-20T00:33:42.008Z,97943.03
2023-10-20T00:36:08.483Z,97963.78
2023-10-20T00:38:35.297Z,97964.53
2023-10-20T00:41:01.904Z,97957.34
2023-10-20T00:43:35.689Z,97936.19
2023-10-20T00:46:02.897Z,97959.97
2023-10-20T00:48:29.834Z,97938.91
2023-10-20T00:50:56.403Z,97942.13
2023-10-20T00:53:23.065Z,97958.53
2023-10-20T00:55:49.692Z,97932.63
2023-10-20T00:58:19.193Z,97926.56
2023-10-20T01:00:45.751Z,97900.56
2023-10-20T01:03:12.436Z,97917.09
2023-10-20T01:05:39.631Z,97908.59
2023-10-20T01:08:06.619Z,97899.03
2023-10-20T01:10:33.054Z,97882.69
2023-10-20T01:12:59.591Z,97907.34
2023-10-20T01:15:26.314Z,97912.19
2023-10-20T01:17:52.916Z,97895.44
2023-10-20T01:20:19.651Z,97910.00
2023-10-20T01:22:46.140Z,97898.41
2023-10-20T01:25:12.619Z,97917.56
2023-10-20T01:27:39.212Z,97902.16
2023-10-20T01:30:06.243Z,97904.06
2023-10-20T01:32:32.926Z,97907.34
2023-10-20T01:34:59.512Z,97902.47
2023-10-20T01:37:26.206Z,97903.56
2023-10-20T01:39:52.688Z,97901.69
2023-10-20T01:42:19.345Z,97887.09
2023-10-20T01:44:45.736Z,97892.34
2023-10-20T01:47:12.203Z,97895.75
2023-10-20T01:49:38.732Z,97887.53
2023-10-20T01:52:05.120Z,97856.66
2023-10-20T01:54:31.842Z,97877.03
2023-10-20T01:56:58.420Z,97872.75
2023-10-20T01:59:28.509Z,97862.84
2023-10-20T02:01:55.047Z,97859.00
2023-10-20T02:04:21.607Z,97866.28
2023-10-20T02:06:48.084Z,97837.97
2023-10-20T02:09:14.443Z,97837.66
2023-10-20T02:11:40.875Z,97845.38
2023-10-20T02:14:07.391Z,97833.94
2023-10-20T02:16:34.389Z,97847.00
2023-10-20T02:19:00.972Z,97844.78
2023-10-20T02:21:29.710Z,97830.38
2023-10-20T02:23:58.684Z,97838.94
2023-10-20T02:26:25.188Z,97839.50
2023-10-20T02:28:51.788Z,97833.81
2023-10-20T02:31:19.010Z,97813.16
2023-10-20T02:33:45.648Z,97825.81
2023-10-20T02:36:23.018Z,97827.63
2023-10-20T02:38:51.674Z,97809.50
2023-10-20T02:41:18.150Z,97791.78
2023-10-20T02:43:44.679Z,97795.25
2023-10-20T02:46:11.243Z,97800.34
2023-10-20T02:48:37.962Z,97784.56
2023-10-20T02:51:12.110Z,97791.34
2023-10-20T02:53:38.884Z,97775.38
2023-10-20T02:56:11.116Z,97765.31
2023-10-20T02:58:37.578Z,97755.94
2023-10-20T03:01:06.759Z,97748.81
2023-10-20T03:03:33.696Z,97732.38
2023-10-20T03:06:01.292Z,97720.28
2023-10-20T03:08:31.750Z,97692.88
2023-10-20T03:11:01.491Z,97708.84
2023-10-20T03:13:30.808Z,97681.63
2023-10-20T03:15:57.337Z,97714.53
2023-10-20T03:18:23.991Z,97685.41
2023-10-20T03:20:51.407Z,97698.81
2023-10-20T03:23:18.706Z,97677.16
2023-10-20T03:25:45.405Z,97677.72
2023-10-20T03:28:11.871Z,97651.84
2023-10-20T03:30:39.323Z,97662.34
2023-10-20T03:33:07.436Z,97660.66
2023-10-20T03:35:34.739Z,97667.94
2023-10-20T03:38:01.881Z,97669.69
2023-10-20T03:40:31.740Z,97657.03
2023-10-20T03:43:00.993Z,97657.94
2023-10-20T03:45:27.433Z,97639.34
2023-10-20T03:47:59.435Z,97613.84
2023-10-20T03:50:26.001Z,97604.28
2023-10-20T03:52:54.912Z,97599.97
2023-10-20T03:55:21.346Z,97609.34
2023-10-20T03:57:47.947Z,97600.22
2023-10-20T04:00:15.637Z,97609.44
2023-10-20T04:02:42.377Z,97591.50
2023-10-20T04:05:09.162Z,97597.47
2023-10-20T04:07:35.550Z,97606.38
2023-10-20T04:10:02.005Z,97589.53
2023-10-20T04:12:31.199Z,97581.72
2023-10-20T04:14:57.670Z,97595.03
2023-10-20T04:17:24.707Z,97598.91
2023-10-20T04:19:51.238Z,97600.22
2023-10-20T04:22:18.109Z,97595.25
2023-10-20T04:24:44.573Z,97566.69
2023-10-20T04:27:12.878Z,97582.53
2023-10-20T04:29:39.356Z,97567.91
2023-10-20T04:32:05.884Z,97574.72
2023-10-20T04:34:32.696Z,97569.75
2023-10-20T04:36:59.309Z,97569.00
2023-10-20T04:39:25.840Z,97552.53
2023-10-20T04:42:00.536Z,97558.78
2023-10-20T04:44:27.554Z,97528.75
2023-10-20T04:46:58.225Z,97554.59
2023-10-20T04:49:30.443Z,97525.56
2023-10-20T04:51:58.212Z,97541.22
2023-10-20T04:54:24.715Z,97541.28
2023-10-20T04:56:51.351Z,97542.75
2023-10-20T04:59:20.334Z,97540.66
2023-10-20T05:01:46.831Z,97545.38
2023-10-20T05:04:15.657Z,97532.19
2023-10-20T05:06:45.209Z,97518.56
2023-10-20T05:09:12.253Z,97539.56
2023-10-20T05:11:38.842Z,97540.66
2023-10-20T05:14:05.432Z,97545.69
2023-10-20T05:16:32.110Z,97509.91
2023-10-20T05:19:01.873Z,97507.25
2023-10-20T05:21:31.849Z,97509.91
2023-10-20T05:23:58.247Z,97506.38
2023-10-20T05:26:24.761Z,97501.75
2023-10-20T05:28:51.246Z,97487.25
2023-10-20T05:31:22.987Z,97482.00
2023-10-20T05:33:49.607Z,97476.41
2023-10-20T05:36:16.104Z,97459.50
2023-10-20T05:38:42.733Z,97481.47
2023-10-20T05:41:11.720Z,97475.50
2023-10-20T05:43:39.155Z,97463.63
2023-10-20T05:46:07.985Z,97450.91
2023-10-20T05:48:37.259Z,97448.63
2023-10-20T05:51:06.167Z,97414.56
2023-10-20T05:53:32.846Z,97443.22
2023-10-20T05:56:01.875Z,97439.38
2023-10-20T05:58:28.301Z,97412.03
2023-10-20T06:01:03.134Z,97426.53
2023-10-20T06:03:30.482Z,97442.88
2023-10-20T06:06:01.143Z,97451.03
2023-10-20T06:08:29.396Z,97459.81
2023-10-20T06:11:08.498Z,97417.09
2023-10-20T06:13:37.876Z,97437.75
2023-10-20T06:16:06.309Z,97438.63
2023-10-20T06:18:36.124Z,97434.13
2023-10-20T06:21:05.067Z,97421.56
2023-10-20T06:23:32.176Z,97440.34
2023-10-20T06:26:02.179Z,97416.75
2023-10-20T06:28:29.669Z,97448.28
2023-10-20T06:30:56.234Z,97440.69
2023-10-20T06:33:22.699Z,97420.06
2023-10-20T06:35:50.888Z,97416.75
2023-10-20T06:38:18.560Z,97449.56
2023-10-20T06:40:45.134Z,97444.66
2023-10-20T06:43:11.642Z,97427.94
2023-10-20T06:45:38.295Z,97423.22
2023-10-20T06:48:08.178Z,97427.53
2023-10-20T06:50:37.568Z,97404.78
2023-10-20T06:53:08.708Z,97438.94
2023-10-20T06:56:00.583Z,97436.66
2023-10-20T06:58:29.009Z,97431.69
2023-10-20T07:00:55.433Z,97430.03
2023-10-20T07:03:22.089Z,97417.72
2023-10-20T07:05:48.855Z,97449.78
2023-10-20T07:08:15.375Z,97444.88
2023-10-20T07:10:41.938Z,97423.13
2023-10-20T07:13:09.956Z,97391.72
2023-10-20T07:15:36.786Z,97409.41
2023-10-20T07:18:07.051Z,97433.22
2023-10-20T07:20:41.149Z,97437.72
2023-10-20T07:23:07.697Z,97410.63
2023-10-20T07:25:35.256Z,97420.72
2023-10-20T07:28:02.621Z,97427.75
2023-10-20T07:30:32.522Z,97412.25
2023-10-20T07:33:01.512Z,97407.19
2023-10-20T07:35:28.358Z,97391.19
2023-10-20T07:37:55.020Z,97410.91
2023-10-20T07:40:21.574Z,97420.38
2023-10-20T07:42:48.174Z,97425.41
2023-10-20T07:45:14.958Z,97396.88
2023-10-20T07:47:41.629Z,97422.22
2023-10-20T07:50:08.462Z,97423.22
2023-10-20T07:52:37.967Z,97412.34
2023-10-20T07:55:05.592Z,97422.03
2023-10-20T07:57:32.344Z,97424.00
2023-10-20T08:00:00.397Z,97422.03
2023-10-20T08:02:26.997Z,97404.47
2023-10-20T08:04:56.777Z,97387.44
2023-10-20T08:07:23.813Z,97414.88
2023-10-20T08:09:50.469Z,97419.06
2023-10-20T08:12:17.084Z,97420.06
2023-10-20T08:14:43.727Z,97414.00
2023-10-20T08:17:10.228Z,97427.06
2023-10-20T08:19:36.952Z,97421.38
2023-10-20T08:22:03.393Z,97397.75
2023-10-20T08:24:30.035Z,97422.13
2023-10-20T08:26:56.548Z,97410.28
2023-10-20T08:29:23.151Z,97405.53
2023-10-20T08:31:49.673Z,97410.84
2023-10-20T08:34:16.244Z,97402.91
2023-10-20T08:36:42.708Z,97389.59
2023-10-20T08:39:09.354Z,97405.94
2023-10-20T08:41:35.892Z,97382.03
2023-10-20T08:44:37.355Z,97363.75
2023-10-20T08:47:04.804Z,97377.13
2023-10-20T08:49:31.588Z,97354.84
2023-10-20T08:52:04.369Z,97370.53
2023-10-20T08:54:31.813Z,97364.50
2023-10-20T08:57:07.397Z,97380.66
2023-10-20T08:59:35.443Z,97348.25
2023-10-20T09:02:02.473Z,97330.69
2023-10-20T09:04:32.011Z,97351.22
2023-10-20T09:07:00.412Z,97357.81
2023-10-20T09:09:27.056Z,97362.31
2023-10-20T09:11:56.402Z,97133.47
2023-10-20T09:14:23.048Z,97152.78
2023-10-20T09:16:51.278Z,97167.69
2023-10-20T09:19:17.891Z,97213.53
2023-10-20T09:21:46.202Z,97252.91
2023-10-20T09:24:15.587Z,97261.91
2023-10-20T09:26:42.244Z,97269.50
2023-10-20T09:29:09.857Z,97262.56
2023-10-20T09:31:37.995Z,97242.97
2023-10-20T09:34:04.847Z,97292.63
2023-10-20T09:36:33.085Z,97296.03
2023-10-20T09:39:25.642Z,97272.56
2023-10-20T09:41:59.898Z,97304.72
2023-10-20T09:44:46.813Z,97303.50
2023-10-20T09:47:36.492Z,97305.03
2023-10-20T09:50:03.238Z,97332.47
2023-10-20T09:52:33.148Z,97319.84
2023-10-20T09:55:02.828Z,97332.59
2023-10-20T09:57:32.163Z,97343.78
2023-10-20T10:00:00.613Z,97345.97
2023-10-20T10:02:30.916Z,97344.88
2023-10-20T10:04:58.958Z,97325.00
2023-10-20T10:07:38.248Z,97344.75
2023-10-20T10:10:09.074Z,97346.06
2023-10-20T10:12:35.779Z,97330.06
2023-10-20T10:15:07.661Z,97345.75
2023-10-20T10:20:43.770Z,97322.03
2023-10-20T10:23:11.993Z,97341.03
2023-10-20T10:25:43.343Z,97335.22
2023-10-20T10:28:14.795Z,97322.72
2023-10-20T10:30:43.658Z,97327.84
2023-10-20T10:33:12.351Z,97296.50
2023-10-20T10:35:40.177Z,97302.63
2023-10-20T10:38:18.580Z,97312.19
2023-10-20T10:40:46.774Z,97312.19
2023-10-20T10:43:18.040Z,97317.22
2023-10-20T10:45:44.859Z,97320.84
2023-10-20T10:48:15.044Z,97297.34
2023-10-20T10:50:43.580Z,97306.69
2023-10-20T10:53:11.293Z,97349.47
2023-10-20T10:55:38.490Z,97321.38
2023-10-20T10:58:10.641Z,97384.56
2023-10-20T11:00:39.144Z,97445.28
2023-10-20T11:03:10.261Z,97435.06
2023-10-20T11:05:41.255Z,97455.91
2023-10-20T11:08:09.624Z,97442.75
2023-10-20T11:10:38.900Z,97448.69
2023-10-20T11:13:12.310Z,97435.41
2023-10-20T11:15:41.138Z,97441.13
2023-10-20T11:18:11.385Z,97423.75
2023-10-20T11:20:42.696Z,97424.97
2023-10-20T11:23:10.706Z,97428.81
2023-10-20T11:25:38.550Z,97385.03
2023-10-20T11:28:08.205Z,97367.81
2023-10-20T11:30:37.310Z,97380.97
2023-10-20T11:33:05.371Z,97359.22
2023-10-20T11:35:32.186Z,97342.56
2023-10-20T11:37:59.584Z,97324.13
2023-10-20T11:40:26.872Z,97327.31
2023-10-20T11:42:59.348Z,97322.03
2023-10-20T11:45:26.073Z,97282.88
2023-10-20T11:47:53.039Z,97311.81
2023-10-20T11:50:22.636Z,97290.00
2023-10-20T11:52:49.492Z,97290.44
2023-10-20T11:55:15.947Z,97250.63
2023-10-20T11:57:43.097Z,97263.22
2023-10-20T12:00:10.341Z,97240.09
2023-10-20T12:02:41.077Z,97236.34
2023-10-20T12:05:08.750Z,97230.97
2023-10-20T12:07:38.813Z,97190.72
2023-10-20T12:10:08.594Z,97172.44
2023-10-20T12:12:38.228Z,97177.38
2023-10-20T12:15:06.923Z,97202.22
2023-10-20T12:17:33.510Z,97185.00
2023-10-20T12:20:00.080Z,97188.53
2023-10-20T12:22:26.474Z,97192.03
2023-10-20T12:24:52.891Z,97199.91
2023-10-20T12:27:19.320Z,97184.13
2023-10-20T12:29:45.983Z,97174.78
2023-10-20T12:32:12.491Z,97167.03
2023-10-20T12:34:39.506Z,97183.25
2023-10-20T12:37:06.094Z,97166.59
2023-10-20T12:39:33.030Z,97160.22
2023-10-20T12:42:02.654Z,97134.91
2023-10-20T12:44:33.787Z,97135.88
2023-10-20T12:47:00.676Z,97123.63
2023-10-20T12:49:27.133Z,97160.31
2023-10-20T12:51:56.758Z,97122.41
2023-10-20T12:54:23.267Z,97130.31
2023-10-20T12:56:49.700Z,97148.00
2023-10-20T12:59:18.748Z,97110.00
2023-10-20T13:01:45.476Z,97134.53
2023-10-20T13:04:13.224Z,97137.63
2023-10-20T13:06:53.792Z,97142.22
2023-10-20T13:09:25.582Z,97122.41
2023-10-20T13:11:56.174Z,97123.16
2023-10-20T13:14:23.012Z,97106.94
2023-10-20T13:16:49.836Z,97136.84
2023-10-20T13:19:16.531Z,97132.06
2023-10-20T13:21:43.749Z,97138.38
2023-10-20T13:24:13.177Z,97103.75
2023-10-20T13:26:39.837Z,97138.53
2023-10-20T13:29:06.532Z,97117.28
2023-10-20T13:31:35.301Z,97126.47
2023-10-20T13:34:02.205Z,97144.09
2023-10-20T13:36:31.139Z,97135.66
2023-10-20T13:38:58.060Z,97138.66
2023-10-20T13:41:25.814Z,97156.84
2023-10-20T13:43:54.915Z,97118.03
2023-10-20T13:46:21.790Z,97141.38
2023-10-20T13:48:48.727Z,97125.84
2023-10-20T13:51:15.391Z,97121.03
2023-10-20T13:53:41.910Z,97101.16
2023-10-20T13:56:08.433Z,97082.50
2023-10-20T13:58:35.060Z,97078.88
2023-10-20T14:01:10.361Z,97080.66
2023-10-20T14:03:36.975Z,97088.44
2023-10-20T14:06:05.451Z,97098.41
2023-10-20T14:08:32.221Z,97082.19
2023-10-20T14:10:59.914Z,97096.00
2023-10-20T14:13:26.456Z,97109.47
2023-10-20T14:15:53.014Z,97111.78
2023-10-20T14:18:19.545Z,97110.91
2023-10-20T14:20:46.145Z,97092.31
2023-10-20T14:23:12.559Z,97099.72
2023-10-20T14:25:39.050Z,97096.47
2023-10-20T14:28:07.178Z,97099.22
2023-10-20T14:30:34.704Z,97078.09
2023-10-20T14:33:01.389Z,97091.09
2023-10-20T14:35:28.504Z,97100.53
2023-10-20T14:37:56.612Z,97095.16
2023-10-20T14:40:23.037Z,97086.81
2023-10-20T14:42:49.480Z,97100.88
2023-10-20T14:45:15.945Z,97102.03
2023-10-20T14:47:42.606Z,97089.00
2023-10-20T14:50:09.346Z,97124.97
2023-10-20T14:52:38.884Z,97114.56
2023-10-20T14:55:09.107Z,97108.63
2023-10-20T14:57:39.249Z,97096.59
2023-10-20T15:00:07.514Z,97107.31
2023-10-20T15:02:33.953Z,97122.56
2023-10-20T15:05:03.708Z,97106.56
2023-10-20T15:07:33.815Z,97101.63
2023-10-20T15:10:03.580Z,97110.50
2023-10-20T15:12:30.062Z,97116.66
2023-10-20T15:14:56.561Z,97153.47
2023-10-20T15:17:56.662Z,97161.81
2023-10-20T15:20:32.218Z,97158.63
2023-10-20T15:23:16.406Z,97168.50
2023-10-20T15:25:44.944Z,97168.59
2023-10-20T15:28:11.499Z,97150.59
2023-10-20T15:30:38.225Z,97146.78
2023-10-20T15:33:06.747Z,97138.22
2023-10-20T15:35:38.568Z,97143.56
2023-10-20T15:38:05.097Z,97132.50
2023-10-20T15:40:37.215Z,97112.34
2023-10-20T15:43:32.425Z,97110.72
2023-10-20T15:46:03.908Z,97123.66
2023-10-20T15:48:38.266Z,97110.06
2023-10-20T15:51:08.469Z,97149.50
2023-10-20T15:53:35.095Z,97152.44
2023-10-20T15:56:13.928Z,97114.56
2023-10-20T15:58:40.343Z,97126.56
2023-10-20T16:01:10.639Z,97137.34
2023-10-20T16:03:37.438Z,97142.81
2023-10-20T16:06:04.306Z,97151.09
2023-10-20T16:08:37.787Z,97127.69
2023-10-20T16:11:06.373Z,97139.72
2023-10-20T16:13:33.025Z,97122.41
2023-10-20T16:15:59.495Z,97143.78
2023-10-20T16:23:49.606Z,97141.06
2023-10-20T16:26:28.456Z,97170.50
2023-10-20T16:28:55.153Z,97140.84
2023-10-20T16:31:23.212Z,97140.94
2023-10-20T16:33:49.890Z,97148.81
2023-10-20T16:36:16.572Z,97154.19
2023-10-20T16:39:11.472Z,97144.09
2023-10-20T16:45:34.250Z,97134.91
2023-10-20T16:48:05.574Z,97151.75
2023-10-20T16:50:47.899Z,97143.78
2023-10-20T16:53:52.559Z,97124.97
2023-10-20T16:56:19.278Z,97149.88
2023-10-20T16:58:45.833Z,97131.38
2023-10-20T17:01:12.308Z,97152.50
2023-10-20T17:03:38.948Z,97124.66
2023-10-20T17:06:08.547Z,97132.75
2023-10-20T17:08:35.063Z,97157.94
2023-10-20T17:11:05.850Z,97135.81
2023-10-20T17:13:33.435Z,97130.88
2023-10-20T17:16:08.797Z,97157.28
2023-10-20T17:18:36.335Z,97149.81
2023-10-20T17:21:10.368Z,97144.78
2023-10-20T17:23:37.032Z,97148.13
2023-10-20T17:26:04.962Z,97149.66
2023-10-20T17:31:14.627Z,97125.34
2023-10-20T17:33:41.239Z,97150.25
2023-10-20T17:36:10.999Z,97150.84
2023-10-20T17:38:48.246Z,97150.78
2023-10-20T17:41:14.982Z,97166.44
2023-10-20T17:43:41.788Z,97154.16
2023-10-20T17:46:12.101Z,97137.69
2023-10-20T17:48:52.774Z,97153.25
2023-10-20T17:53:59.724Z,97146.59
2023-10-20T18:00:11.910Z,97159.41
2023-10-20T18:02:41.622Z,97146.47
2023-10-20T18:05:08.647Z,97146.81
2023-10-20T18:07:35.304Z,97142.13
2023-10-20T18:10:02.143Z,97148.31
2023-10-20T18:12:28.714Z,97132.94
2023-10-20T18:14:55.333Z,97139.91
2023-10-20T18:17:21.860Z,97156.44
2023-10-20T18:19:48.394Z,97133.41
2023-10-20T18:22:17.009Z,97158.09
2023-10-20T18:24:46.482Z,97118.16
2023-10-20T18:27:13.157Z,97110.78
2023-10-20T18:29:39.850Z,97107.88
2023-10-20T18:32:06.602Z,97134.63
2023-10-20T18:34:33.040Z,97123.41
2023-10-20T18:36:59.442Z,97127.38
2023-10-20T18:39:25.933Z,97122.28
2023-10-20T18:41:55.082Z,97096.00
2023-10-20T18:44:21.622Z,97083.16
2023-10-20T18:46:48.040Z,97070.22
2023-10-20T18:49:14.471Z,97073.13
2023-10-20T18:51:43.290Z,97067.91
2023-10-20T18:54:10.208Z,97082.63
2023-10-20T18:56:36.714Z,97074.69
2023-10-20T18:59:03.561Z,97060.41
2023-10-20T19:01:30.036Z,97062.13
2023-10-20T19:03:56.599Z,97012.06
2023-10-20T19:06:25.127Z,97009.63
2023-10-20T19:08:51.573Z,97030.28
2023-10-20T19:11:18.820Z,97020.75
2023-10-20T19:13:45.262Z,97028.75
2023-10-20T19:16:11.707Z,97043.78
2023-10-20T19:18:38.456Z,97026.69
2023-10-20T19:21:08.868Z,97056.44
2023-10-20T19:23:35.639Z,97065.88
2023-10-20T19:26:09.520Z,97039.94
2023-10-20T19:28:39.106Z,97059.56
2023-10-20T19:31:09.351Z,97064.22
2023-10-20T19:33:36.950Z,97054.91
2023-10-20T19:36:05.731Z,97044.09
2023-10-20T19:38:35.433Z,97036.44
2023-10-20T19:41:05.957Z,97054.22
2023-10-20T19:43:32.409Z,97041.06
2023-10-20T19:45:59.109Z,97049.75
2023-10-20T19:48:25.668Z,97048.69
2023-10-20T19:50:57.457Z,97056.38
2023-10-20T19:53:24.215Z,97026.44
2023-10-20T19:55:56.694Z,97022.34
2023-10-20T19:58:23.426Z,97050.28
2023-10-20T20:00:49.985Z,97030.50
2023-10-20T20:03:16.581Z,97029.84
2023-10-20T20:05:45.449Z,97035.97
2023-10-20T20:08:12.078Z,97030.06
2023-10-20T20:10:38.523Z,97038.06
2023-10-20T20:13:07.723Z,97020.28
2023-10-20T20:15:34.226Z,97039.75
2023-10-20T20:18:00.762Z,97038.63
2023-10-20T20:20:30.197Z,97024.78
2023-10-20T20:22:56.606Z,97012.97
2023-10-20T20:25:25.768Z,97009.78
2023-10-20T20:27:57.862Z,97006.44
2023-10-20T20:30:30.642Z,96999.91
2023-10-20T20:32:57.147Z,97006.22
2023-10-20T20:35:23.646Z,96975.00
2023-10-20T20:37:56.160Z,96986.88
2023-10-20T20:40:22.823Z,96989.72
2023-10-20T20:42:49.367Z,96976.47
2023-10-20T20:45:15.978Z,96981.50
2023-10-20T20:47:57.627Z,96986.22
2023-10-20T20:50:32.865Z,96919.00
2023-10-20T20:53:07.702Z,96936.78
2023-10-20T20:55:37.282Z,96935.59
2023-10-20T20:58:24.064Z,96898.19
2023-10-20T21:00:52.764Z,96884.69
2023-10-20T21:03:19.404Z,96917.59
2023-10-20T21:06:04.642Z,96921.00
2023-10-20T21:08:31.262Z,96781.72
2023-10-20T21:11:30.231Z,96851.31
2023-10-20T21:16:52.120Z,96910.09
2023-10-20T21:19:31.556Z,96913.75
2023-10-20T21:22:07.015Z,96894.47
2023-10-20T21:24:33.646Z,96904.38
2023-10-20T21:27:00.265Z,96900.63
2023-10-20T21:29:28.496Z,96827.72
2023-10-20T21:31:55.528Z,96811.44
2023-10-20T21:34:22.747Z,96857.22
2023-10-20T21:36:56.343Z,96873.06
2023-10-20T21:39:22.846Z,96876.88
2023-10-20T21:41:49.276Z,96908.63
2023-10-20T21:44:18.946Z,96923.41
2023-10-20T21:46:48.872Z,96922.25
2023-10-20T21:49:15.838Z,96938.63
2023-10-20T21:51:42.322Z,96946.66
2023-10-20T21:54:09.023Z,96951.66
2023-10-20T21:56:35.586Z,96951.28
2023-10-20T21:59:02.246Z,96936.81
2023-10-20T22:01:28.806Z,96922.81
2023-10-20T22:03:55.284Z,96926.31
2023-10-20T22:06:21.924Z,96933.91
2023-10-20T22:08:48.504Z,96945.66
2023-10-20T22:11:14.973Z,96955.47
2023-10-20T22:13:41.461Z,96957.78
2023-10-20T22:16:08.250Z,96972.59
2023-10-20T22:18:37.909Z,96977.06
2023-10-20T22:21:07.100Z,96989.19
2023-10-20T22:23:35.972Z,96988.50
2023-10-20T22:26:02.540Z,96999.53
2023-10-20T22:28:31.215Z,96993.81
2023-10-20T22:30:58.933Z,96996.81
2023-10-20T22:33:25.443Z,97009.44
2023-10-20T22:35:54.072Z,97009.00
2023-10-20T22:38:20.709Z,97002.47
2023-10-20T22:40:47.120Z,97019.56
2023-10-20T22:43:13.751Z,97012.69
2023-10-20T22:45:40.925Z,97016.44
2023-10-20T22:48:07.665Z,97046.09
2023-10-20T22:50:34.155Z,97046.81
2023-10-20T22:53:00.601Z,96829.41
2023-10-20T22:55:27.201Z,96901.59
2023-10-20T22:57:56.515Z,96950.88
2023-10-20T23:00:23.074Z,96973.06
2023-10-20T23:02:49.862Z,96987.41
2023-10-20T23:05:19.513Z,96997.56
2023-10-20T23:07:46.194Z,97011.19
2023-10-20T23:10:12.631Z,97026.31
2023-10-20T23:12:39.056Z,97031.63
2023-10-20T23:15:09.634Z,97047.38
2023-10-20T23:17:37.040Z,97055.31
2023-10-20T23:20:03.741Z,97057.13
2023-10-20T23:22:31.072Z,97046.91
2023-10-20T23:24:57.771Z,97051.34
2023-10-20T23:27:24.284Z,97049.69
2023-10-20T23:29:50.926Z,97066.63
2023-10-20T23:32:17.591Z,97074.63
2023-10-20T23:34:44.090Z,97085.50
2023-10-20T23:37:10.639Z,97086.19
2023-10-20T23:39:37.579Z,97106.28
2023-10-20T23:42:07.049Z,97102.41
2023-10-20T23:44:33.653Z,97108.56
2023-10-20T23:47:00.300Z,97107.69
2023-10-20T23:49:26.902Z,97124.41
2023-10-20T23:51:55.955Z,97114.72
2023-10-20T23:54:22.496Z,97121.56
2023-10-20T23:56:49.020Z,97112.28
2023-10-20T23:59:15.602Z,97103.13
